Time;durP1;ratioP1;P1;durP2;ratioP2;P2;SDS_P1;SDS_P2;PMS_P1;PMS_P2;Temp;Humidity;BMP_temperature;BMP_pressure;BME280_temperature;BME280_humidity;BME280_pressure;Samples;Min_cycle;Max_cycle;Signal;HPM_P1;HPM_P2
2022/12/13 00:01:56;;;;;;;29.75;13.15;;;;;;;-5.80;100.00;101190.47;5011412;28;20026;-75
2022/12/13 00:04:23;;;;;;;44.05;13.05;;;;;;;-5.84;100.00;101189.63;5009914;28;20034;-75
2022/12/13 00:06:49;;;;;;;42.97;32.55;;;;;;;-6.02;100.00;101189.66;5010651;28;20033;-75
2022/12/13 00:09:16;;;;;;;29.27;12.70;;;;;;;-5.91;100.00;101182.00;5009739;28;20025;-75
2022/12/13 00:11:42;;;;;;;30.00;13.73;;;;;;;-5.91;100.00;101182.84;5011116;28;20107;-76
2022/12/13 00:14:07;;;;;;;35.17;14.55;;;;;;;-5.91;100.00;101182.00;4998784;28;20033;-74
2022/12/13 00:16:33;;;;;;;46.40;32.53;;;;;;;-6.10;100.00;101183.69;5002679;28;20030;-76
2022/12/13 00:18:59;;;;;;;29.80;11.75;;;;;;;-5.96;100.00;101189.69;5011521;28;20045;-74
2022/12/13 00:21:31;;;;;;;31.73;12.65;;;;;;;-5.98;100.00;101183.72;5009911;28;20491;-74
2022/12/13 00:23:57;;;;;;;34.60;13.45;;;;;;;-6.02;100.00;101169.19;4992085;28;20044;-74
2022/12/13 00:26:25;;;;;;;27.92;11.38;;;;;;;-6.01;100.00;101176.00;5016865;28;20029;-75
2022/12/13 00:28:52;;;;;;;26.67;11.70;;;;;;;-6.02;100.00;101174.31;5009414;28;20041;-75
2022/12/13 00:31:23;;;;;;;40.30;29.23;;;;;;;-6.16;100.00;101176.03;5008732;28;20558;-74
2022/12/13 00:33:48;;;;;;;33.65;12.07;;;;;;;-6.06;100.00;101177.72;5009527;28;20030;-74
2022/12/13 00:36:14;;;;;;;26.67;11.30;;;;;;;-6.03;100.00;101182.84;5010548;28;20064;-75
2022/12/13 00:38:41;;;;;;;26.27;12.15;;;;;;;-6.04;100.00;101176.00;5010430;28;20099;-75
2022/12/13 00:41:15;;;;;;;29.33;12.38;;;;;;;-6.04;100.00;101173.44;5006116;28;20034;-75
2022/12/13 00:43:41;;;;;;;31.05;11.98;;;;;;;-6.08;100.00;101179.44;4991103;28;20057;-74
2022/12/13 00:46:13;;;;;;;26.23;11.80;;;;;;;-6.08;100.00;101169.19;4997351;28;20109;-74
2022/12/13 00:48:39;;;;;;;32.75;12.02;;;;;;;-6.09;100.00;101172.59;5006388;28;20274;-74
2022/12/13 00:51:06;;;;;;;32.22;11.82;;;;;;;-6.11;99.96;101174.31;4989268;28;20105;-75
2022/12/13 00:53:32;;;;;;;32.95;13.10;;;;;;;-6.12;100.00;101173.47;5008773;28;20057;-74
2022/12/13 00:55:57;;;;;;;32.92;12.95;;;;;;;-6.13;100.00;101165.78;5009082;28;20399;-74
2022/12/13 00:58:22;;;;;;;43.10;30.92;;;;;;;-6.36;100.00;101158.97;5010662;28;20037;-74
2022/12/13 01:00:50;;;;;;;28.02;11.45;;;;;;;-6.17;100.00;101159.81;5009683;28;20029;-75
2022/12/13 01:03:24;;;;;;;28.67;12.93;;;;;;;-6.19;100.00;101165.78;4996464;28;20101;-74
2022/12/13 01:05:50;;;;;;;25.65;11.32;;;;;;;-6.17;100.00;101164.09;5010910;28;20115;-74
2022/12/13 01:08:16;;;;;;;25.30;11.38;;;;;;;-6.18;100.00;101168.34;5010304;28;20022;-74
2022/12/13 01:10:45;;;;;;;32.15;11.77;;;;;;;-6.16;100.00;101165.78;5009599;28;20474;-74
2022/12/13 01:13:12;;;;;;;24.23;10.10;;;;;;;-6.18;99.78;101162.38;5010013;28;20030;-75
2022/12/13 01:15:45;;;;;;;21.20;10.10;;;;;;;-6.20;100.00;101161.53;5009878;28;20044;-75
2022/12/13 01:18:13;;;;;;;25.88;10.60;;;;;;;-6.24;99.88;101152.16;5009260;28;20030;-75
2022/12/13 01:20:38;;;;;;;26.48;10.75;;;;;;;-6.28;100.00;101156.41;5008932;28;20590;-75
2022/12/13 01:23:10;;;;;;;26.98;10.40;;;;;;;-6.32;100.00;101153.00;5011024;28;20033;-75
2022/12/13 01:25:36;;;;;;;25.08;9.95;;;;;;;-6.34;99.89;101152.16;5010936;28;20471;-75
2022/12/13 01:28:04;;;;;;;31.08;11.80;;;;;;;-6.36;99.84;101148.75;5009805;28;20026;-75
2022/12/13 01:30:29;;;;;;;31.05;11.73;;;;;;;-6.36;100.00;101153.84;5021946;28;20525;-75
2022/12/13 01:32:55;;;;;;;26.05;10.10;;;;;;;-6.38;100.00;101155.56;5027886;28;20017;-75
2022/12/13 01:35:20;;;;;;;31.83;10.40;;;;;;;-6.40;100.00;101147.03;5026388;28;20035;-74
2022/12/13 01:37:46;;;;;;;25.40;10.98;;;;;;;-6.41;100.00;101150.41;5029698;28;20024;-75
2022/12/13 01:40:12;;;;;;;41.40;27.85;;;;;;;-6.53;100.00;101160.66;5030017;28;20029;-74
2022/12/13 01:42:37;;;;;;;31.15;11.13;;;;;;;-6.41;100.00;101160.66;5030242;28;20033;-75
2022/12/13 01:45:27;;;;;;;28.73;11.02;;;;;;;-6.39;100.00;101164.09;5029623;28;20035;-74
2022/12/13 01:47:58;;;;;;;32.40;12.05;;;;;;;-6.39;100.00;101165.81;5022642;28;20044;-74
2022/12/13 01:50:32;;;;;;;21.42;9.52;;;;;;;-6.39;100.00;101164.09;5028465;28;20113;-75
2022/12/13 01:52:59;;;;;;;25.98;10.98;;;;;;;-6.41;100.00;101165.78;5024354;28;20036;-75
2022/12/13 01:55:28;;;;;;;38.65;26.85;;;;;;;-6.59;100.00;101168.34;5030008;28;20025;-75
2022/12/13 01:57:56;;;;;;;23.77;10.27;;;;;;;-6.45;100.00;101161.50;5029943;28;20022;-75
2022/12/13 02:00:26;;;;;;;28.05;10.25;;;;;;;-6.45;100.00;101168.34;5009971;28;20033;-75
2022/12/13 02:02:53;;;;;;;21.52;9.73;;;;;;;-6.46;99.93;101162.38;5011105;28;20034;-75
2022/12/13 02:05:30;;;;;;;27.63;11.30;;;;;;;-6.50;99.81;101150.44;5029078;28;20105;-75
2022/12/13 02:07:58;;;;;;;24.30;10.38;;;;;;;-6.50;99.69;101155.53;5027913;28;20033;-75
2022/12/13 02:10:25;;;;;;;28.17;9.85;;;;;;;-6.52;100.00;101162.38;5008432;28;20547;-76
2022/12/13 02:12:51;;;;;;;21.67;9.55;;;;;;;-6.54;99.57;101158.97;5023035;28;20064;-75
2022/12/13 02:15:20;;;;;;;37.53;28.50;;;;;;;-6.74;99.94;101161.50;5010362;28;20025;-75
2022/12/13 02:18:07;;;;;;;19.90;8.90;;;;;;;-6.60;100.00;101158.09;5029333;28;20401;-75
2022/12/13 02:20:47;;;;;;;36.90;26.90;;;;;;;-6.70;100.00;101159.81;5028541;28;20030;-75
2022/12/13 02:23:23;;;;;;;28.30;9.38;;;;;;;-6.58;100.00;101161.50;5028634;28;20025;-75
2022/12/13 02:26:10;;;;;;;24.95;9.50;;;;;;;-6.56;100.00;101159.81;5028153;28;20061;-75
2022/12/13 02:29:00;;;;;;;22.38;9.75;;;;;;;-6.54;100.00;101158.97;5028729;28;20025;-75
2022/12/13 02:31:37;;;;;;;38.90;28.33;;;;;;;-6.65;100.00;101160.66;5029136;28;20033;-75
2022/12/13 02:34:31;;;;;;;39.55;28.15;;;;;;;-6.59;100.00;101158.09;5029415;28;20039;-76
2022/12/13 02:37:06;;;;;;;24.45;10.55;;;;;;;-6.51;100.00;101152.97;5029149;28;20074;-75
2022/12/13 02:39:43;;;;;;;21.13;8.68;;;;;;;-6.50;100.00;101158.09;5012352;28;20029;-75
2022/12/13 02:42:22;;;;;;;17.17;8.30;;;;;;;-6.50;100.00;101149.56;5021971;28;20034;-75
2022/12/13 02:45:00;;;;;;;26.38;9.65;;;;;;;-6.50;100.00;101147.88;5025410;28;20025;-76
2022/12/13 02:47:28;;;;;;;24.35;8.90;;;;;;;-6.50;100.00;101142.75;5030639;28;20062;-74
2022/12/13 02:49:58;;;;;;;25.55;11.50;;;;;;;-6.51;100.00;101138.47;5033177;28;20032;-74
2022/12/13 02:52:29;;;;;;;25.15;10.20;;;;;;;-6.51;100.00;101132.50;5032978;28;20108;-74
2022/12/13 02:54:56;;;;;;;24.15;10.18;;;;;;;-6.51;100.00;101138.47;5032565;28;20385;-74
2022/12/13 02:57:29;;;;;;;20.08;8.30;;;;;;;-6.49;100.00;101141.03;5029715;28;20034;-75
2022/12/13 02:59:56;;;;;;;24.98;10.15;;;;;;;-6.52;100.00;101126.53;5016422;28;20041;-74
2022/12/13 03:02:50;;;;;;;44.65;31.23;;;;;;;-6.59;100.00;101124.84;5031606;28;20040;-74
2022/12/13 03:08:34;;;;;;;29.55;10.07;;;;;;;-6.50;100.00;101126.53;5032817;28;20063;-74
2022/12/13 03:11:08;;;;;;;29.95;10.00;;;;;;;-6.49;100.00;101121.41;4996971;28;20548;-74
2022/12/13 03:13:53;;;;;;;30.75;10.75;;;;;;;-6.47;100.00;101117.16;5012845;28;20043;-75
2022/12/13 03:16:25;;;;;;;29.75;10.05;;;;;;;-6.47;100.00;101124.84;5011636;28;20539;-74
2022/12/13 03:18:53;;;;;;;28.95;10.93;;;;;;;-6.47;100.00;101129.94;5014236;28;20733;-74
2022/12/13 03:21:19;;;;;;;49.55;32.65;;;;;;;-6.52;100.00;101126.53;5011124;28;20044;-74
2022/12/13 03:23:45;;;;;;;30.02;12.00;;;;;;;-6.44;100.00;101129.94;5013298;28;20501;-74
2022/12/13 03:26:15;;;;;;;28.15;10.88;;;;;;;-6.42;100.00;101128.25;5013298;28;20029;-74
2022/12/13 03:28:41;;;;;;;23.73;10.52;;;;;;;-6.39;100.00;101128.28;5031405;28;20025;-74
2022/12/13 03:31:07;;;;;;;27.90;11.73;;;;;;;-6.34;100.00;101134.22;5013656;28;20049;-74
2022/12/13 03:33:32;;;;;;;28.48;10.63;;;;;;;-6.32;100.00;101129.97;5019129;28;20030;-74
2022/12/13 03:35:59;;;;;;;27.45;11.15;;;;;;;-6.32;100.00;101135.09;5017450;28;20017;-75
2022/12/13 03:38:25;;;;;;;28.20;11.77;;;;;;;-6.32;100.00;101129.13;5013892;28;20056;-74
2022/12/13 03:40:54;;;;;;;24.70;11.07;;;;;;;-6.30;100.00;101121.44;5014119;28;20030;-74
2022/12/13 03:43:20;;;;;;;26.75;10.68;;;;;;;-6.29;100.00;101123.13;5032181;28;20025;-74
2022/12/13 03:45:45;;;;;;;29.25;11.82;;;;;;;-6.30;100.00;101121.44;5031737;28;20033;-75
2022/12/13 03:48:10;;;;;;;34.95;11.65;;;;;;;-6.30;100.00;101118.88;5030045;28;20095;-74
2022/12/13 03:50:36;;;;;;;34.85;11.10;;;;;;;-6.32;100.00;101114.59;5010659;28;20087;-75
2022/12/13 03:53:02;;;;;;;25.50;9.95;;;;;;;-6.33;100.00;101128.25;5032065;28;20112;-75
2022/12/13 03:55:28;;;;;;;29.48;10.82;;;;;;;-6.35;100.00;101113.75;5031165;28;20108;-75
2022/12/13 03:57:54;;;;;;;25.13;10.30;;;;;;;-6.36;100.00;101123.16;5014649;28;20455;-75
2022/12/13 04:00:19;;;;;;;26.02;10.63;;;;;;;-6.36;100.00;101107.78;5012987;28;20077;-75
2022/12/13 04:02:45;;;;;;;18.70;9.43;;;;;;;-6.34;100.00;101112.91;5031070;28;20021;-75
2022/12/13 04:05:10;;;;;;;26.00;10.55;;;;;;;-6.31;100.00;101115.47;5010523;28;20441;-75
2022/12/13 04:07:35;;;;;;;31.80;11.20;;;;;;;-6.24;100.00;101116.31;5029423;28;20381;-75
2022/12/13 04:10:03;;;;;;;23.45;9.45;;;;;;;-6.20;100.00;101113.72;5013225;28;20032;-75
2022/12/13 04:15:12;;;;;;;30.73;11.30;;;;;;;-6.10;100.00;101109.44;5030924;28;20075;-75
2022/12/13 04:17:38;;;;;;;36.50;11.32;;;;;;;-6.02;100.00;101108.56;5030359;28;20548;-75
2022/12/13 04:20:04;;;;;;;30.48;11.75;;;;;;;-5.93;100.00;101101.75;5029308;28;20030;-75
2022/12/13 04:22:29;;;;;;;28.25;11.20;;;;;;;-5.87;100.00;101101.69;5027672;28;20033;-75
2022/12/13 04:24:55;;;;;;;31.50;12.35;;;;;;;-5.83;100.00;101099.13;5030677;28;20087;-75
2022/12/13 04:27:28;;;;;;;28.13;11.70;;;;;;;-5.80;100.00;101113.63;5025605;28;20109;-75
2022/12/13 04:29:53;;;;;;;34.55;13.27;;;;;;;-5.79;100.00;101111.06;5023933;28;20132;-75
2022/12/13 04:32:22;;;;;;;28.98;11.25;;;;;;;-5.80;100.00;101099.09;5012974;28;20140;-75
2022/12/13 04:34:47;;;;;;;27.15;10.68;;;;;;;-5.79;100.00;101103.38;5012248;28;20026;-75
2022/12/13 04:37:13;;;;;;;54.10;34.30;;;;;;;-5.87;100.00;101102.53;5029140;28;20100;-74
2022/12/13 04:39:38;;;;;;;28.88;11.65;;;;;;;-5.81;100.00;101102.53;5011159;28;20650;-75
2022/12/13 04:42:04;;;;;;;27.90;12.15;;;;;;;-5.77;100.00;101103.34;5011881;28;20554;-75
2022/12/13 04:44:29;;;;;;;25.67;11.48;;;;;;;-5.79;100.00;101095.69;5029238;28;20060;-75
2022/12/13 04:46:54;;;;;;;26.58;11.63;;;;;;;-5.78;100.00;101099.09;5030896;28;20025;-75
2022/12/13 04:49:20;;;;;;;26.63;10.90;;;;;;;-5.78;100.00;101087.13;5011647;28;20029;-75
2022/12/13 04:51:45;;;;;;;46.42;32.92;;;;;;;-5.88;100.00;101087.19;5031740;28;20032;-75
2022/12/13 04:54:13;;;;;;;27.85;11.40;;;;;;;-5.78;100.00;101092.25;5028090;28;20029;-75
2022/12/13 04:56:39;;;;;;;46.83;33.95;;;;;;;-5.88;100.00;101088.03;5022393;28;20125;-74
2022/12/13 04:59:04;;;;;;;26.83;11.07;;;;;;;-5.78;100.00;101091.41;5029897;28;20467;-74
2022/12/13 05:01:30;;;;;;;26.48;11.10;;;;;;;-5.77;100.00;101093.97;5013276;28;20533;-74
2022/12/13 05:03:55;;;;;;;30.63;11.60;;;;;;;-5.75;100.00;101083.72;5027617;28;20025;-74
2022/12/13 05:06:20;;;;;;;32.53;12.52;;;;;;;-5.76;100.00;101090.53;5029895;28;20055;-74
2022/12/13 05:08:46;;;;;;;47.33;33.40;;;;;;;-5.85;100.00;101084.59;5030650;28;20052;-74
2022/12/13 05:11:11;;;;;;;31.88;11.93;;;;;;;-5.77;100.00;101093.97;5004492;28;20021;-74
2022/12/13 05:13:37;;;;;;;29.85;13.38;;;;;;;-5.76;100.00;101087.13;5011564;28;20025;-74
2022/12/13 05:16:07;;;;;;;29.42;11.40;;;;;;;-5.76;100.00;101085.41;5017815;28;20108;-75
2022/12/13 05:18:34;;;;;;;30.90;12.40;;;;;;;-5.74;100.00;101085.41;5011826;28;20071;-75
2022/12/13 05:21:02;;;;;;;28.65;11.40;;;;;;;-5.73;100.00;101082.00;5028417;28;20033;-75
2022/12/13 05:23:27;;;;;;;27.83;10.60;;;;;;;-5.73;100.00;101075.16;5011212;28;20044;-75
2022/12/13 05:25:52;;;;;;;30.45;12.00;;;;;;;-5.73;100.00;101075.16;5030296;28;20025;-75
2022/12/13 05:28:24;;;;;;;32.00;12.07;;;;;;;-5.76;100.00;101077.72;5023099;28;20068;-75
2022/12/13 05:30:50;;;;;;;34.13;12.30;;;;;;;-5.76;100.00;101080.28;5029579;28;20049;-75
2022/12/13 05:33:16;;;;;;;27.67;11.85;;;;;;;-5.77;100.00;101068.34;5030186;28;20063;-75
2022/12/13 05:35:41;;;;;;;33.55;11.75;;;;;;;-5.78;100.00;101069.19;5012178;28;20056;-74
2022/12/13 05:38:06;;;;;;;25.38;9.77;;;;;;;-5.80;100.00;101068.34;5027677;28;20065;-75
2022/12/13 05:40:32;;;;;;;33.08;11.27;;;;;;;-5.80;100.00;101073.47;5029927;28;20022;-75
2022/12/13 05:42:57;;;;;;;28.45;11.68;;;;;;;-5.78;100.00;101069.19;5011656;28;20474;-75
2022/12/13 05:45:23;;;;;;;29.73;12.15;;;;;;;-5.74;100.00;101064.91;5023203;28;20036;-75
2022/12/13 05:47:48;;;;;;;30.92;11.30;;;;;;;-5.69;100.00;101066.59;5029767;28;20095;-75
2022/12/13 05:50:15;;;;;;;54.05;36.13;;;;;;;-5.69;100.00;101060.63;5010909;28;20026;-75
2022/12/13 05:52:44;;;;;;;51.20;37.05;;;;;;;-5.64;100.00;101060.59;5028918;28;20397;-74
2022/12/13 05:55:10;;;;;;;29.15;11.73;;;;;;;-5.60;100.00;101060.59;5029914;28;20040;-75
2022/12/13 05:57:36;;;;;;;24.75;11.68;;;;;;;-5.56;100.00;101058.88;5026239;28;20056;-75
2022/12/13 06:00:05;;;;;;;34.10;12.40;;;;;;;-5.56;100.00;101064.00;5006726;28;20104;-75
2022/12/13 06:02:30;;;;;;;26.63;11.00;;;;;;;-5.55;100.00;101061.44;5006049;28;20029;-74
2022/12/13 06:04:56;;;;;;;52.78;35.97;;;;;;;-5.59;100.00;101071.72;5029052;28;20518;-74
2022/12/13 06:07:21;;;;;;;22.10;9.48;;;;;;;-5.54;100.00;101070.81;5028196;28;20064;-75
2022/12/13 06:09:46;;;;;;;47.83;34.78;;;;;;;-5.65;100.00;101071.72;5013258;28;20420;-75
2022/12/13 06:12:12;;;;;;;31.70;11.50;;;;;;;-5.57;100.00;101075.13;5026415;28;20025;-75
2022/12/13 06:14:37;;;;;;;28.35;12.07;;;;;;;-5.59;100.00;101069.16;5027098;28;20082;-75
2022/12/13 06:17:03;;;;;;;35.22;11.93;;;;;;;-5.60;100.00;101067.41;5025184;28;20068;-75
2022/12/13 06:19:28;;;;;;;49.47;33.97;;;;;;;-5.67;100.00;101079.41;5016499;28;20065;-74
2022/12/13 06:21:54;;;;;;;30.63;12.15;;;;;;;-5.60;100.00;101069.97;5024710;28;20060;-75
2022/12/13 06:24:26;;;;;;;33.85;12.35;;;;;;;-5.59;100.00;101070.00;5015897;28;20025;-75
2022/12/13 06:26:51;;;;;;;28.77;13.98;;;;;;;-5.54;100.00;101069.97;5015879;28;20367;-75
2022/12/13 06:29:21;;;;;;;30.50;11.90;;;;;;;-5.52;100.00;101074.22;5031383;28;20052;-75
2022/12/13 06:31:47;;;;;;;28.52;11.73;;;;;;;-5.54;100.00;101067.41;5033247;28;20431;-75
2022/12/13 06:34:12;;;;;;;31.58;11.55;;;;;;;-5.54;100.00;101073.38;5033189;28;20047;-75
2022/12/13 06:36:38;;;;;;;30.02;11.88;;;;;;;-5.52;100.00;101073.38;5016171;28;20362;-75
2022/12/13 06:39:05;;;;;;;32.15;12.35;;;;;;;-5.53;100.00;101072.53;5033314;28;20025;-75
2022/12/13 06:41:31;;;;;;;34.25;13.90;;;;;;;-5.53;100.00;101076.81;5014516;28;20025;-75
2022/12/13 06:43:57;;;;;;;32.05;13.05;;;;;;;-5.52;100.00;101079.34;5032490;28;20114;-75
2022/12/13 06:46:22;;;;;;;32.90;12.60;;;;;;;-5.52;100.00;101084.47;5032386;28;20067;-75
2022/12/13 06:48:48;;;;;;;34.58;12.30;;;;;;;-5.52;100.00;101078.50;5013421;28;20047;-75
2022/12/13 06:51:14;;;;;;;40.72;13.48;;;;;;;-5.50;100.00;101076.78;5005132;28;20030;-75
2022/12/13 06:53:40;;;;;;;29.15;11.98;;;;;;;-5.49;100.00;101068.22;5029448;28;20033;-75
2022/12/13 06:56:08;;;;;;;33.28;13.07;;;;;;;-5.48;100.00;101063.09;5031314;28;20052;-75
2022/12/13 06:58:34;;;;;;;25.90;11.20;;;;;;;-5.48;100.00;101067.38;5031508;28;20117;-75
2022/12/13 07:01:01;;;;;;;54.55;37.30;;;;;;;-5.57;100.00;101064.84;5031868;28;20108;-75
2022/12/13 07:03:28;;;;;;;29.33;11.85;;;;;;;-5.48;100.00;101069.94;5031681;28;20565;-75
2022/12/13 07:05:54;;;;;;;37.15;14.38;;;;;;;-5.48;100.00;101069.94;5032716;28;20473;-75
2022/12/13 07:08:19;;;;;;;53.35;37.75;;;;;;;-5.58;100.00;101058.03;5031902;28;20033;-75
2022/12/13 07:10:45;;;;;;;31.60;13.27;;;;;;;-5.50;100.00;101076.78;5031898;28;20022;-75
2022/12/13 07:13:13;;;;;;;28.75;12.70;;;;;;;-5.49;100.00;101073.34;5031775;28;20021;-75
2022/12/13 07:15:39;;;;;;;33.08;13.68;;;;;;;-5.49;100.00;101063.09;5031753;28;20037;-75
2022/12/13 07:18:04;;;;;;;31.17;12.75;;;;;;;-5.50;100.00;101069.09;5031981;28;20083;-75
2022/12/13 07:20:29;;;;;;;32.88;12.40;;;;;;;-5.49;100.00;101065.66;5031629;28;20490;-75
2022/12/13 07:22:55;;;;;;;28.95;11.20;;;;;;;-5.51;100.00;101064.81;5031890;28;20482;-75
2022/12/13 07:25:21;;;;;;;64.13;41.75;;;;;;;-5.64;100.00;101065.72;5028011;28;20084;-75
2022/12/13 07:27:46;;;;;;;32.60;12.88;;;;;;;-5.54;100.00;101067.41;5012174;28;20029;-75
2022/12/13 07:30:12;;;;;;;35.72;13.40;;;;;;;-5.54;100.00;101064.84;5010543;28;20062;-75
2022/12/13 07:32:37;;;;;;;34.13;13.52;;;;;;;-5.54;100.00;101067.41;5012399;28;20056;-75
2022/12/13 07:35:03;;;;;;;36.40;14.02;;;;;;;-5.54;100.00;101062.28;4995040;28;20029;-74
2022/12/13 07:37:28;;;;;;;37.80;13.80;;;;;;;-5.53;100.00;101071.69;5005561;28;20030;-75
2022/12/13 07:39:53;;;;;;;30.77;11.65;;;;;;;-5.53;100.00;101072.53;5026994;28;20098;-74
2022/12/13 07:42:19;;;;;;;34.58;14.32;;;;;;;-5.50;100.00;101074.22;5012535;28;20034;-74
2022/12/13 07:44:44;;;;;;;32.78;13.60;;;;;;;-5.48;100.00;101075.91;5016925;28;20034;-75
2022/12/13 07:47:10;;;;;;;40.45;15.30;;;;;;;-5.46;100.00;101071.63;5027064;28;20025;-75
2022/12/13 07:49:35;;;;;;;36.70;14.07;;;;;;;-5.43;100.00;101073.31;5023559;28;20053;-74
2022/12/13 07:52:00;;;;;;;41.58;15.05;;;;;;;-5.41;100.00;101080.16;5012209;28;20464;-74
2022/12/13 07:54:26;;;;;;;38.05;16.55;;;;;;;-5.38;100.00;101087.81;5011496;28;20067;-74
2022/12/13 07:56:51;;;;;;;38.10;15.80;;;;;;;-5.35;100.00;101084.38;5029171;28;20075;-75
2022/12/13 07:59:16;;;;;;;39.33;16.52;;;;;;;-5.33;100.00;101085.22;5031338;28;20025;-74
2022/12/13 08:01:41;;;;;;;39.53;15.55;;;;;;;-5.31;100.00;101080.94;5011371;28;20512;-74
2022/12/13 08:04:07;;;;;;;39.38;15.48;;;;;;;-5.27;100.00;101080.06;5013161;28;20025;-74
2022/12/13 08:06:36;;;;;;;66.50;46.53;;;;;;;-5.27;100.00;101074.09;5030387;28;20017;-74
2022/12/13 08:09:05;;;;;;;41.47;15.38;;;;;;;-5.21;100.00;101074.91;5030071;28;20041;-77
2022/12/13 08:11:31;;;;;;;46.42;17.42;;;;;;;-5.18;100.00;101080.03;5028183;28;20022;-76
2022/12/13 08:13:56;;;;;;;68.45;46.60;;;;;;;-5.19;100.00;101073.22;5029854;28;20486;-74
2022/12/13 08:16:21;;;;;;;40.53;16.92;;;;;;;-5.13;100.00;101068.03;5011304;28;20454;-76
2022/12/13 08:18:47;;;;;;;66.25;46.65;;;;;;;-5.16;100.00;101078.31;5013654;28;20021;-76
2022/12/13 08:21:14;;;;;;;71.93;47.83;;;;;;;-5.13;100.00;101083.41;5030715;28;20032;-75
2022/12/13 08:23:39;;;;;;;40.13;15.15;;;;;;;-5.07;100.00;101073.13;5010219;28;20037;-75
2022/12/13 08:26:05;;;;;;;35.33;14.75;;;;;;;-5.02;100.00;101079.94;5011323;28;20037;-76
2022/12/13 08:28:32;;;;;;;46.30;15.63;;;;;;;-5.00;100.00;101084.19;5028419;28;20032;-76
2022/12/13 08:31:13;;;;;;;72.00;47.78;;;;;;;-5.01;100.00;101092.75;5030928;28;20077;-76
2022/12/13 08:33:44;;;;;;;43.13;17.48;;;;;;;-4.94;100.00;101091.84;5030655;28;20516;-76
2022/12/13 08:36:11;;;;;;;64.30;45.63;;;;;;;-4.98;100.00;101090.16;5030820;28;20021;-76
2022/12/13 08:38:36;;;;;;;42.40;15.35;;;;;;;-4.91;100.00;101093.53;5030931;28;20112;-76
2022/12/13 08:41:05;;;;;;;45.70;18.08;;;;;;;-4.85;100.00;101088.34;5012422;28;20116;-76
2022/12/13 08:43:31;;;;;;;49.58;16.75;;;;;;;-4.83;100.00;101079.78;5030434;28;20441;-75
2022/12/13 08:45:56;;;;;;;50.28;20.38;;;;;;;-4.78;100.00;101095.16;5013049;28;20037;-75
2022/12/13 08:48:22;;;;;;;47.00;18.13;;;;;;;-4.74;100.00;101086.59;5029992;28;20028;-75
2022/12/13 08:50:47;;;;;;;49.38;18.75;;;;;;;-4.70;100.00;101087.41;5031185;28;20072;-76
2022/12/13 08:53:12;;;;;;;49.72;20.95;;;;;;;-4.66;100.00;101094.22;5030384;28;20026;-76
2022/12/13 08:55:37;;;;;;;45.85;16.48;;;;;;;-4.61;100.00;101101.00;5030273;28;20075;-75
2022/12/13 08:58:07;;;;;;;48.22;15.57;;;;;;;-4.58;100.00;101103.56;5030632;28;20025;-76
2022/12/13 09:00:33;;;;;;;49.28;17.35;;;;;;;-4.51;100.00;101109.47;5012396;28;20021;-76
2022/12/13 09:02:58;;;;;;;49.25;17.38;;;;;;;-4.44;100.00;101116.28;5030305;28;20623;-76
2022/12/13 09:05:24;;;;;;;41.47;17.40;;;;;;;-4.34;100.00;101107.66;5012044;28;20053;-75
2022/12/13 09:07:54;;;;;;;45.85;18.13;;;;;;;-4.27;100.00;101105.88;5030487;28;20025;-73
2022/12/13 09:10:19;;;;;;;41.78;17.23;;;;;;;-4.21;100.00;101104.09;5011246;28;20022;-76
2022/12/13 09:12:45;;;;;;;47.97;19.23;;;;;;;-4.14;100.00;101112.59;5011858;28;20036;-75
2022/12/13 09:15:10;;;;;;;57.67;42.78;;;;;;;-4.18;100.00;101109.19;5009613;28;20326;-74
2022/12/13 09:17:35;;;;;;;45.47;17.85;;;;;;;-4.11;100.00;101104.84;5019034;28;20087;-76
2022/12/13 09:20:01;;;;;;;40.13;16.10;;;;;;;-4.05;100.00;101106.50;5029510;28;20112;-74
2022/12/13 09:22:26;;;;;;;50.03;20.05;;;;;;;-4.02;100.00;101106.47;5028829;28;20504;-74
2022/12/13 09:24:52;;;;;;;41.15;16.02;;;;;;;-3.97;100.00;101107.31;5029799;28;20053;-74
2022/12/13 09:27:18;;;;;;;40.15;17.27;;;;;;;-3.93;100.00;101112.38;5029370;28;20493;-74
2022/12/13 09:29:45;;;;;;;50.80;17.73;;;;;;;-3.88;100.00;101114.91;5008325;28;20050;-74
2022/12/13 09:32:11;;;;;;;56.20;41.03;;;;;;;-3.90;100.00;101101.22;5003125;28;20398;-75
2022/12/13 09:34:37;;;;;;;44.70;18.45;;;;;;;-3.81;100.00;101109.69;5009980;28;20049;-76
2022/12/13 09:37:03;;;;;;;60.97;42.38;;;;;;;-3.83;100.00;101111.41;5009758;28;20025;-76
2022/12/13 09:39:28;;;;;;;43.92;16.17;;;;;;;-3.73;100.00;101111.31;5010401;28;20037;-76
2022/12/13 09:41:56;;;;;;;41.85;16.10;;;;;;;-3.68;100.00;101112.09;5008710;28;20017;-76
2022/12/13 09:44:47;;;;;;;49.15;19.08;;;;;;;-3.63;100.00;101105.19;5008086;28;20068;-76
2022/12/13 09:47:37;;;;;;;58.30;41.72;;;;;;;-3.65;100.00;101105.19;4997792;28;20386;-76
2022/12/13 09:50:15;;;;;;;36.58;14.27;;;;;;;-3.56;100.00;101106.84;5006573;28;20050;-76
2022/12/13 09:52:43;;;;;;;46.75;19.30;;;;;;;-3.55;100.00;101106.81;5011693;28;20029;-73
2022/12/13 09:55:23;;;;;;;60.10;41.65;;;;;;;-3.58;100.00;101100.88;5013648;28;20240;-76
2022/12/13 09:57:49;;;;;;;59.78;43.42;;;;;;;-3.58;100.00;101108.59;5012689;28;20387;-76
2022/12/13 10:00:19;;;;;;;43.20;16.00;;;;;;;-3.50;100.00;101104.19;5014122;28;20056;-76
2022/12/13 10:02:50;;;;;;;46.83;19.55;;;;;;;-3.49;100.00;101109.31;5013165;28;20108;-76
2022/12/13 10:05:25;;;;;;;47.50;18.48;;;;;;;-3.47;100.00;101093.88;5011217;28;20030;-76
2022/12/13 10:07:54;;;;;;;40.60;17.60;;;;;;;-3.42;100.00;101092.09;5013021;28;20021;-74
2022/12/13 10:10:20;;;;;;;64.53;44.38;;;;;;;-3.42;100.00;101086.09;5012978;28;20478;-74
2022/12/13 10:12:51;;;;;;;62.35;44.95;;;;;;;-3.39;100.00;101081.75;5013899;28;20104;-76
2022/12/13 10:15:23;;;;;;;49.92;19.27;;;;;;;-3.30;100.00;101073.91;5012574;28;20092;-74
2022/12/13 10:17:49;;;;;;;40.83;18.03;;;;;;;-3.23;100.00;101083.25;5012816;28;20030;-74
2022/12/13 10:20:27;;;;;;;60.30;44.22;;;;;;;-3.27;99.60;101068.72;5008150;28;20673;-74
2022/12/13 10:22:53;;;;;;;60.22;46.40;;;;;;;-3.20;100.00;101072.94;5012658;28;20028;-74
2022/12/13 10:25:50;;;;;;;62.78;45.67;;;;;;;-3.09;100.00;101089.94;5012658;28;20037;-76
2022/12/13 10:28:23;;;;;;;45.30;15.57;;;;;;;-3.02;99.52;101070.97;5011590;28;20041;-76
2022/12/13 10:30:49;;;;;;;42.58;18.25;;;;;;;-2.99;98.91;101060.63;5011640;28;20053;-74
2022/12/13 10:33:24;;;;;;;60.08;42.65;;;;;;;-3.03;98.43;101059.81;5011092;28;20492;-74
2022/12/13 10:36:13;;;;;;;38.50;15.00;;;;;;;-2.93;99.16;101060.53;5013746;28;20101;-74
2022/12/13 10:38:44;;;;;;;46.55;16.63;;;;;;;-2.91;99.23;101046.75;5013204;28;20108;-74
2022/12/13 10:41:37;;;;;;;38.13;14.85;;;;;;;-2.87;99.03;101057.84;5011224;28;20399;-74
2022/12/13 10:44:07;;;;;;;52.33;18.80;;;;;;;-2.87;97.96;101058.69;5001438;28;20030;-74
2022/12/13 10:46:33;;;;;;;37.25;15.65;;;;;;;-2.85;98.67;101058.66;5013136;28;20101;-74
2022/12/13 10:48:58;;;;;;;55.20;40.65;;;;;;;-2.87;98.43;101050.13;5013142;28;20022;-74
2022/12/13 10:51:23;;;;;;;45.13;18.55;;;;;;;-2.80;97.97;101046.59;5012711;28;20505;-74
2022/12/13 10:53:57;;;;;;;54.70;39.80;;;;;;;-2.79;97.55;101040.56;5013123;28;20018;-74
2022/12/13 10:56:37;;;;;;;44.78;15.20;;;;;;;-2.66;98.18;101026.63;5012765;28;20030;-74
2022/12/13 10:59:19;;;;;;;53.78;38.22;;;;;;;-2.59;97.41;101025.63;5011595;28;20044;-74
2022/12/13 11:01:45;;;;;;;;;;;;;;;-2.47;98.36;101029.72;5011977;28;20034;-75
2022/12/13 11:04:28;;;;;;;37.13;14.73;;;;;;;-2.37;98.39;101020.13;5011615;28;20392;-74
2022/12/13 11:06:55;;;;;;;44.83;16.13;;;;;;;-2.29;97.51;101011.38;5012729;28;20030;-75
2022/12/13 11:09:34;;;;;;;54.90;38.20;;;;;;;-2.25;95.98;101013.00;5010481;28;20114;-74
2022/12/13 11:12:22;;;;;;;51.50;36.65;;;;;;;-2.15;94.79;101015.41;5012900;28;20030;-74
2022/12/13 11:15:06;;;;;;;37.08;14.80;;;;;;;-2.06;95.31;101013.50;5011468;28;20601;-74
2022/12/13 11:17:46;;;;;;;53.15;36.47;;;;;;;-2.05;95.26;100994.56;5012705;28;20026;-74